Time;durP1;ratioP1;P1;durP2;ratioP2;P2;SDS_P1;SDS_P2;PMS_P1;PMS_P2;Temp;Humidity;BMP_temperature;BMP_pressure;BME280_temperature;BME280_humidity;BME280_pressure;Samples;Min_cycle;Max_cycle;Signal;HPM_P1;HPM_P2
2022/12/02 00:00:52;;;;;;;;;;;3.10;99.90;;;;;;4933546;29;19923;-73
2022/12/02 00:03:19;;;;;;;;;;;3.10;99.90;;;;;;4950387;28;19961;-73
2022/12/02 00:05:46;;;;;;;;;;;3.10;99.90;;;;;;4956090;28;19926;-73
2022/12/02 00:08:15;;;;;;;;;;;3.10;99.90;;;;;;4957626;28;20032;-73
2022/12/02 00:10:42;;;;;;;;;;;3.00;99.90;;;;;;4941679;28;20028;-73
2022/12/02 00:13:22;;;;;;;;;;;3.00;99.90;;;;;;4954828;28;19927;-73
2022/12/02 00:16:10;;;;;;;;;;;3.10;99.90;;;;;;4952460;28;19922;-73
2022/12/02 00:18:35;;;;;;;;;;;3.10;99.90;;;;;;4962498;28;19926;-73
2022/12/02 00:21:01;;;;;;;;;;;3.10;99.90;;;;;;4948641;28;19922;-73
2022/12/02 00:23:27;;;;;;;;;;;3.10;99.90;;;;;;4957564;28;19927;-73
2022/12/02 00:25:52;;;;;;;;;;;3.00;99.90;;;;;;4958992;28;19933;-73
2022/12/02 00:28:18;;;;;;;;;;;3.00;99.90;;;;;;4956994;28;19946;-73
2022/12/02 00:30:44;;;;;;;;;;;2.90;99.90;;;;;;4956841;28;20417;-73
2022/12/02 00:33:09;;;;;;;;;;;2.90;99.90;;;;;;4938711;29;19937;-73
2022/12/02 00:35:35;;;;;;;;;;;2.90;99.90;;;;;;4932057;28;20379;-73
2022/12/02 00:38:01;;;;;;;;;;;2.80;99.90;;;;;;4954541;28;20020;-73
2022/12/02 00:40:26;;;;;;;;;;;2.80;99.90;;;;;;4936729;28;20398;-73
2022/12/02 00:42:52;;;;;;;;;;;2.80;99.90;;;;;;4962177;28;20017;-73
2022/12/02 00:48:02;;;;;;;;;;;2.70;99.90;;;;;;4949542;28;19926;-73
2022/12/02 00:50:28;;;;;;;;;;;2.70;99.90;;;;;;4962404;28;19927;-73
2022/12/02 00:52:54;;;;;;;;;;;2.70;99.90;;;;;;4955101;28;19923;-73
2022/12/02 00:55:19;;;;;;;;;;;2.70;99.90;;;;;;4962730;28;19922;-73
2022/12/02 00:57:45;;;;;;;;;;;2.60;99.90;;;;;;4955457;28;19922;-73
2022/12/02 01:00:11;;;;;;;;;;;2.60;99.90;;;;;;4955462;28;19926;-73
2022/12/02 01:02:37;;;;;;;;;;;2.60;99.90;;;;;;4957020;28;19928;-73
2022/12/02 01:05:03;;;;;;;;;;;2.60;99.90;;;;;;4953170;28;19929;-73
2022/12/02 01:07:28;;;;;;;;;;;2.60;99.90;;;;;;4956134;28;19930;-73
2022/12/02 01:09:54;;;;;;;;;;;2.50;99.90;;;;;;4959992;28;19922;-73
2022/12/02 01:12:20;;;;;;;;;;;2.50;99.90;;;;;;4969835;28;19925;-73
2022/12/02 01:14:45;;;;;;;;;;;2.50;99.90;;;;;;4964496;28;19922;-73
2022/12/02 01:17:11;;;;;;;;;;;2.50;99.90;;;;;;4952546;28;19925;-73
2022/12/02 01:19:36;;;;;;;;;;;2.50;99.90;;;;;;4945684;28;20005;-73
2022/12/02 01:22:02;;;;;;;;;;;2.40;99.90;;;;;;4947183;28;19926;-72
2022/12/02 01:24:28;;;;;;;;;;;2.40;99.90;;;;;;4960323;28;19926;-73
2022/12/02 01:26:53;;;;;;;;;;;2.40;99.90;;;;;;4959552;28;19928;-73
2022/12/02 01:29:19;;;;;;;;;;;2.40;99.90;;;;;;4949888;28;20386;-73
2022/12/02 01:31:44;;;;;;;;;;;2.30;99.90;;;;;;4956938;28;19973;-73
2022/12/02 01:34:10;;;;;;;;;;;2.40;99.90;;;;;;4947238;28;19961;-73
2022/12/02 01:36:35;;;;;;;;;;;2.40;99.90;;;;;;4931091;29;19922;-73
2022/12/02 01:39:01;;;;;;;;;;;2.30;99.90;;;;;;4953106;28;19961;-73
2022/12/02 01:41:27;;;;;;;;;;;2.30;99.90;;;;;;4934085;28;20017;-73
2022/12/02 01:43:52;;;;;;;;;;;2.30;99.90;;;;;;4956597;28;19927;-73
2022/12/02 01:46:18;;;;;;;;;;;2.30;99.90;;;;;;4956457;28;19922;-73
2022/12/02 01:48:44;;;;;;;;;;;2.30;99.90;;;;;;4956243;28;19930;-73
2022/12/02 01:51:09;;;;;;;;;;;2.30;99.90;;;;;;4960270;28;19933;-73
2022/12/02 01:53:35;;;;;;;;;;;2.30;99.90;;;;;;4944888;28;20378;-73
2022/12/02 01:56:01;;;;;;;;;;;2.30;99.90;;;;;;4955532;28;19922;-73
2022/12/02 01:58:28;;;;;;;;;;;2.30;99.90;;;;;;4934251;28;19978;-73
2022/12/02 02:00:54;;;;;;;;;;;2.20;99.90;;;;;;4959089;28;19990;-73
2022/12/02 02:03:19;;;;;;;;;;;2.20;99.90;;;;;;4956724;28;19933;-73
2022/12/02 02:05:46;;;;;;;;;;;2.20;99.90;;;;;;4941933;28;20013;-73
2022/12/02 02:08:12;;;;;;;;;;;2.20;99.90;;;;;;4955522;28;20374;-72
2022/12/02 02:10:39;;;;;;;;;;;2.20;99.90;;;;;;4950088;28;20367;-73
2022/12/02 02:13:05;;;;;;;;;;;2.20;99.90;;;;;;4970700;28;19922;-73
2022/12/02 02:15:31;;;;;;;;;;;2.20;99.90;;;;;;4933982;28;19923;-73
2022/12/02 02:17:57;;;;;;;;;;;2.20;99.90;;;;;;4942571;28;19926;-73
2022/12/02 02:20:23;;;;;;;;;;;2.20;99.90;;;;;;4932640;28;20489;-73
2022/12/02 02:22:53;;;;;;;;;;;2.10;99.90;;;;;;4957145;28;20255;-73
2022/12/02 02:25:19;;;;;;;;;;;2.10;99.90;;;;;;4956650;28;19930;-73
2022/12/02 02:27:57;;;;;;;;;;;2.10;99.90;;;;;;4939232;28;20116;-73
2022/12/02 02:30:23;;;;;;;;;;;2.10;99.90;;;;;;4961247;28;19926;-73
2022/12/02 02:32:49;;;;;;;;;;;2.10;99.90;;;;;;4939361;28;20387;-73
2022/12/02 02:35:16;;;;;;;;;;;2.10;99.90;;;;;;4936367;28;20003;-73
2022/12/02 02:37:42;;;;;;;;;;;2.10;99.90;;;;;;4938574;28;19981;-72
2022/12/02 02:40:08;;;;;;;;;;;2.10;99.90;;;;;;4949196;28;19941;-73
2022/12/02 02:42:34;;;;;;;;;;;2.10;99.90;;;;;;4949227;28;19926;-73
2022/12/02 02:45:00;;;;;;;;;;;2.20;99.90;;;;;;4975580;28;19922;-73
2022/12/02 02:47:25;;;;;;;;;;;2.10;99.90;;;;;;4958194;28;20445;-73
2022/12/02 02:49:51;;;;;;;;;;;2.10;99.90;;;;;;4945986;28;19935;-73
2022/12/02 02:52:17;;;;;;;;;;;2.10;99.90;;;;;;4959031;28;20355;-73
2022/12/02 02:54:42;;;;;;;;;;;2.10;99.90;;;;;;4957671;28;19926;-73
2022/12/02 02:57:08;;;;;;;;;;;2.10;99.90;;;;;;4951870;28;19928;-73
2022/12/02 02:59:34;;;;;;;;;;;2.10;99.90;;;;;;4963304;28;19961;-73
2022/12/02 03:02:03;;;;;;;;;;;2.10;99.90;;;;;;4960245;28;19929;-73
2022/12/02 03:04:28;;;;;;;;;;;2.10;99.90;;;;;;4954276;28;20294;-73
2022/12/02 03:06:54;;;;;;;;;;;2.10;99.90;;;;;;4930521;29;19926;-73
2022/12/02 03:09:20;;;;;;;;;;;2.10;99.90;;;;;;4929887;29;20441;-73
2022/12/02 03:11:47;;;;;;;;;;;2.00;99.90;;;;;;4958377;28;19922;-73
2022/12/02 03:14:14;;;;;;;;;;;2.10;99.90;;;;;;4957170;28;19930;-73
2022/12/02 03:16:39;;;;;;;;;;;2.10;99.90;;;;;;4927445;29;19926;-73
2022/12/02 03:19:05;;;;;;;;;;;2.10;99.90;;;;;;4938868;28;19923;-73
2022/12/02 03:21:32;;;;;;;;;;;2.10;99.90;;;;;;4942418;28;19923;-73
2022/12/02 03:23:59;;;;;;;;;;;2.20;99.90;;;;;;4963316;28;20009;-73
2022/12/02 03:26:27;;;;;;;;;;;2.10;99.90;;;;;;4946203;28;20391;-72
2022/12/02 03:28:53;;;;;;;;;;;2.10;99.90;;;;;;4950349;28;19922;-73
2022/12/02 03:31:19;;;;;;;;;;;2.10;99.90;;;;;;4959472;28;20033;-73
2022/12/02 03:33:44;;;;;;;;;;;2.10;99.90;;;;;;4974055;28;20000;-73
2022/12/02 03:36:10;;;;;;;;;;;2.10;99.90;;;;;;4961921;28;20260;-73
2022/12/02 03:38:36;;;;;;;;;;;2.10;99.90;;;;;;4961366;28;20828;-73
2022/12/02 03:41:04;;;;;;;;;;;2.10;99.90;;;;;;4968094;28;20367;-73
2022/12/02 03:43:30;;;;;;;;;;;2.10;99.90;;;;;;4967708;28;20383;-73
2022/12/02 03:45:56;;;;;;;;;;;2.10;99.90;;;;;;4953845;28;19934;-73
2022/12/02 03:48:23;;;;;;;;;;;2.10;99.90;;;;;;4967527;28;19926;-73
2022/12/02 03:50:50;;;;;;;;;;;2.10;99.90;;;;;;4952286;28;19934;-73
2022/12/02 03:53:16;;;;;;;;;;;2.20;99.90;;;;;;4968525;28;20386;-73
2022/12/02 03:55:41;;;;;;;;;;;2.20;99.90;;;;;;4955517;28;20006;-72
2022/12/02 03:58:07;;;;;;;;;;;2.20;99.90;;;;;;4942745;28;19933;-73
2022/12/02 04:00:34;;;;;;;;;;;2.10;99.90;;;;;;4956296;28;20013;-73
2022/12/02 04:02:59;;;;;;;;;;;2.10;99.90;;;;;;4949360;28;20306;-73
2022/12/02 04:05:25;;;;;;;;;;;2.10;99.90;;;;;;4951721;28;19927;-73
2022/12/02 04:07:50;;;;;;;;;;;2.10;99.90;;;;;;4967154;28;19922;-73
2022/12/02 04:10:16;;;;;;;;;;;2.10;99.90;;;;;;4942404;28;19933;-73
2022/12/02 04:12:41;;;;;;;;;;;2.10;99.90;;;;;;4961195;28;20466;-73
2022/12/02 04:15:07;;;;;;;;;;;2.10;99.90;;;;;;4956665;28;19926;-73
2022/12/02 04:17:33;;;;;;;;;;;2.10;99.90;;;;;;4953845;28;19923;-73
2022/12/02 04:19:58;;;;;;;;;;;2.10;99.90;;;;;;4958070;28;19926;-73
2022/12/02 04:22:24;;;;;;;;;;;2.10;99.90;;;;;;4958874;28;19923;-72
2022/12/02 04:24:49;;;;;;;;;;;2.10;99.90;;;;;;4955344;28;19934;-73
2022/12/02 04:27:15;;;;;;;;;;;2.10;99.90;;;;;;4950473;28;19981;-73
2022/12/02 04:29:41;;;;;;;;;;;2.10;99.90;;;;;;4955310;28;19981;-73
2022/12/02 04:32:06;;;;;;;;;;;2.10;99.90;;;;;;4963510;28;20337;-72
2022/12/02 04:34:32;;;;;;;;;;;2.20;99.90;;;;;;4946487;28;19922;-73
2022/12/02 04:36:57;;;;;;;;;;;2.10;99.90;;;;;;4948317;28;20036;-73
2022/12/02 04:39:23;;;;;;;;;;;2.10;99.90;;;;;;4950747;28;19922;-73
2022/12/02 04:41:48;;;;;;;;;;;2.00;99.90;;;;;;4969209;28;19970;-72
2022/12/02 04:44:14;;;;;;;;;;;2.00;99.90;;;;;;4949735;28;19927;-73
2022/12/02 04:46:40;;;;;;;;;;;2.00;99.90;;;;;;4962248;28;19933;-72
2022/12/02 04:49:05;;;;;;;;;;;2.00;99.90;;;;;;4957015;28;19962;-72
2022/12/02 04:51:31;;;;;;;;;;;2.00;99.90;;;;;;4939437;28;20313;-73
2022/12/02 04:53:57;;;;;;;;;;;2.00;99.90;;;;;;4933308;29;19927;-73
2022/12/02 04:56:23;;;;;;;;;;;2.00;99.90;;;;;;4952786;28;19926;-73
2022/12/02 04:58:48;;;;;;;;;;;1.90;99.90;;;;;;4961837;28;19930;-73
2022/12/02 05:01:14;;;;;;;;;;;2.00;99.90;;;;;;4952317;28;19926;-73
2022/12/02 05:03:39;;;;;;;;;;;2.00;99.90;;;;;;4932279;29;20239;-73
2022/12/02 05:06:05;;;;;;;;;;;2.00;99.90;;;;;;4942213;29;19945;-73
2022/12/02 05:08:30;;;;;;;;;;;1.90;99.90;;;;;;4937100;28;19922;-73
2022/12/02 05:10:56;;;;;;;;;;;1.90;99.90;;;;;;4965035;28;20504;-73
2022/12/02 05:13:22;;;;;;;;;;;1.90;99.90;;;;;;4946342;28;19926;-73
2022/12/02 05:15:47;;;;;;;;;;;1.90;99.90;;;;;;4942608;28;20008;-73
2022/12/02 05:18:13;;;;;;;;;;;1.90;99.90;;;;;;4966576;28;20158;-73
2022/12/02 05:20:38;;;;;;;;;;;1.90;99.90;;;;;;4950770;28;19926;-73
2022/12/02 05:23:04;;;;;;;;;;;1.90;99.90;;;;;;4948930;28;19950;-73
2022/12/02 05:25:29;;;;;;;;;;;2.00;99.90;;;;;;4940728;28;20375;-73
2022/12/02 05:27:55;;;;;;;;;;;2.00;99.90;;;;;;4955412;28;20335;-73
2022/12/02 05:30:20;;;;;;;;;;;1.90;99.90;;;;;;4925384;28;19933;-73
2022/12/02 05:32:46;;;;;;;;;;;2.00;99.90;;;;;;4954975;28;19977;-73
2022/12/02 05:35:11;;;;;;;;;;;1.90;99.90;;;;;;4926062;28;19926;-72
2022/12/02 05:37:37;;;;;;;;;;;1.90;99.90;;;;;;4948908;28;19933;-73
2022/12/02 05:40:03;;;;;;;;;;;1.90;99.90;;;;;;4937817;28;20013;-73
2022/12/02 05:42:29;;;;;;;;;;;1.90;99.90;;;;;;4952988;28;19931;-73
2022/12/02 05:44:59;;;;;;;;;;;2.00;99.90;;;;;;4948038;28;20036;-73
2022/12/02 05:47:26;;;;;;;;;;;1.90;99.90;;;;;;4938879;28;19974;-73
2022/12/02 05:49:52;;;;;;;;;;;1.90;99.90;;;;;;4952195;28;19945;-73
2022/12/02 05:52:28;;;;;;;;;;;1.80;99.90;;;;;;4924460;29;19937;-72
2022/12/02 05:54:54;;;;;;;;;;;1.90;99.90;;;;;;4957273;28;19934;-72
2022/12/02 05:57:22;;;;;;;;;;;1.90;99.90;;;;;;4937590;28;19977;-72
2022/12/02 05:59:48;;;;;;;;;;;1.90;99.90;;;;;;4959669;28;19936;-72
2022/12/02 06:02:23;;;;;;;;;;;1.90;99.90;;;;;;4949159;28;19922;-72
2022/12/02 06:04:49;;;;;;;;;;;1.90;99.90;;;;;;4954664;28;19937;-72
2022/12/02 06:07:14;;;;;;;;;;;1.90;99.90;;;;;;4943087;28;20297;-72
2022/12/02 06:09:41;;;;;;;;;;;1.80;99.90;;;;;;4938203;28;19926;-72
2022/12/02 06:12:12;;;;;;;;;;;1.80;99.90;;;;;;4964600;28;20348;-73
2022/12/02 06:14:38;;;;;;;;;;;1.80;99.90;;;;;;4946154;28;20327;-73
2022/12/02 06:17:12;;;;;;;;;;;1.80;99.90;;;;;;4948966;28;19932;-72
2022/12/02 06:19:37;;;;;;;;;;;1.80;99.90;;;;;;4950971;28;20698;-72
2022/12/02 06:22:03;;;;;;;;;;;1.80;99.90;;;;;;4950878;28;20009;-72
2022/12/02 06:24:31;;;;;;;;;;;1.80;99.90;;;;;;4942083;28;20247;-72
2022/12/02 06:26:57;;;;;;;;;;;1.80;99.90;;;;;;4962804;28;19930;-72
2022/12/02 06:29:23;;;;;;;;;;;1.80;99.90;;;;;;4941745;28;19958;-72
2022/12/02 06:31:49;;;;;;;;;;;1.80;99.90;;;;;;4955674;28;19926;-72
2022/12/02 06:34:18;;;;;;;;;;;1.80;99.90;;;;;;4955553;28;19922;-72
2022/12/02 06:36:43;;;;;;;;;;;1.80;99.90;;;;;;4957986;28;19965;-72
2022/12/02 06:39:15;;;;;;;;;;;1.80;99.90;;;;;;4940833;28;20020;-72
2022/12/02 06:41:40;;;;;;;;;;;1.70;99.90;;;;;;4952020;28;19926;-72
2022/12/02 06:46:59;;;;;;;;;;;1.70;99.90;;;;;;4957292;28;20442;-72
2022/12/02 06:49:29;;;;;;;;;;;1.70;99.90;;;;;;4950319;28;20017;-72
2022/12/02 06:51:55;;;;;;;;;;;1.70;99.90;;;;;;4954014;28;20263;-72
2022/12/02 06:54:22;;;;;;;;;;;1.70;99.90;;;;;;4957364;28;19973;-72
2022/12/02 06:56:49;;;;;;;;;;;1.70;99.90;;;;;;4952825;28;19930;-72
2022/12/02 06:59:17;;;;;;;;;;;1.80;99.90;;;;;;4958388;28;20441;-72
2022/12/02 07:01:43;;;;;;;;;;;1.80;99.90;;;;;;4955744;28;19973;-72
2022/12/02 07:04:08;;;;;;;;;;;1.80;99.90;;;;;;4946051;28;19993;-73
2022/12/02 07:06:36;;;;;;;;;;;1.80;99.90;;;;;;4958795;28;20414;-72
2022/12/02 07:09:03;;;;;;;;;;;1.70;99.90;;;;;;4977565;28;19925;-72
2022/12/02 07:14:26;;;;;;;;;;;1.70;99.90;;;;;;4985274;28;19922;-72
2022/12/02 07:16:53;;;;;;;;;;;1.70;99.90;;;;;;4968423;28;20109;-72
2022/12/02 07:19:20;;;;;;;;;;;1.70;99.90;;;;;;4958230;28;19973;-72
2022/12/02 07:21:46;;;;;;;;;;;1.70;99.90;;;;;;4961239;28;19922;-72
2022/12/02 07:24:17;;;;;;;;;;;1.70;99.90;;;;;;4955077;28;19982;-72
2022/12/02 07:26:44;;;;;;;;;;;1.60;99.90;;;;;;4964109;28;19926;-73
2022/12/02 07:29:12;;;;;;;;;;;1.70;99.90;;;;;;4975107;28;19930;-72
2022/12/02 07:31:37;;;;;;;;;;;1.60;99.90;;;;;;4955757;28;19945;-72
2022/12/02 07:34:03;;;;;;;;;;;1.60;99.90;;;;;;4968480;28;20219;-74
2022/12/02 07:36:30;;;;;;;;;;;1.70;99.90;;;;;;4968530;28;19937;-74
2022/12/02 07:38:55;;;;;;;;;;;1.70;99.90;;;;;;4959555;28;19922;-74
2022/12/02 07:41:22;;;;;;;;;;;1.70;99.90;;;;;;4951870;28;20319;-73
2022/12/02 07:43:48;;;;;;;;;;;1.70;99.90;;;;;;4977554;28;19936;-74
2022/12/02 07:46:13;;;;;;;;;;;1.70;99.90;;;;;;4953189;28;19930;-74
2022/12/02 07:48:39;;;;;;;;;;;1.70;99.90;;;;;;4941114;29;19935;-73
2022/12/02 07:51:05;;;;;;;;;;;1.70;99.90;;;;;;4950552;28;19926;-74
2022/12/02 07:53:30;;;;;;;;;;;1.60;99.90;;;;;;4977847;28;19929;-74
2022/12/02 07:55:57;;;;;;;;;;;1.60;99.90;;;;;;4966640;28;19933;-73
2022/12/02 07:58:22;;;;;;;;;;;1.60;99.90;;;;;;4962384;28;19933;-74
2022/12/02 08:00:48;;;;;;;;;;;1.60;99.90;;;;;;4945771;29;19922;-74
2022/12/02 08:03:14;;;;;;;;;;;1.50;99.90;;;;;;4952166;28;19941;-73
2022/12/02 08:05:39;;;;;;;;;;;1.50;99.90;;;;;;4963672;28;20383;-74
2022/12/02 08:08:05;;;;;;;;;;;1.50;99.90;;;;;;4967426;28;19969;-73
2022/12/02 08:10:30;;;;;;;;;;;1.40;99.90;;;;;;4953605;28;20379;-73
2022/12/02 08:12:56;;;;;;;;;;;1.40;99.90;;;;;;4971625;28;20218;-74
2022/12/02 08:15:22;;;;;;;;;;;1.40;99.90;;;;;;4931600;28;19926;-74
2022/12/02 08:17:47;;;;;;;;;;;1.30;99.90;;;;;;4971329;28;19981;-74
2022/12/02 08:20:13;;;;;;;;;;;1.30;99.90;;;;;;4932723;28;19933;-73
2022/12/02 08:22:39;;;;;;;;;;;1.30;99.90;;;;;;4954517;28;19930;-73
2022/12/02 08:25:04;;;;;;;;;;;1.30;99.90;;;;;;4958167;28;20401;-73
2022/12/02 08:27:30;;;;;;;;;;;1.30;99.90;;;;;;4952538;28;19937;-74
2022/12/02 08:29:56;;;;;;;;;;;1.30;99.90;;;;;;4961331;28;19926;-73
2022/12/02 08:32:22;;;;;;;;;;;1.40;99.90;;;;;;4957868;28;19922;-73
2022/12/02 08:34:47;;;;;;;;;;;1.40;99.90;;;;;;4951325;28;20379;-74
2022/12/02 08:37:13;;;;;;;;;;;1.40;99.90;;;;;;4963857;28;19953;-75
2022/12/02 08:39:45;;;;;;;;;;;1.50;99.90;;;;;;4950461;28;20415;-73
2022/12/02 08:42:10;;;;;;;;;;;1.50;99.90;;;;;;4939097;28;20027;-74
2022/12/02 08:44:36;;;;;;;;;;;1.60;99.90;;;;;;4938524;28;19926;-74
2022/12/02 08:47:01;;;;;;;;;;;1.60;99.90;;;;;;4969428;28;19922;-73
2022/12/02 08:49:27;;;;;;;;;;;1.70;99.90;;;;;;4951379;28;19926;-73
2022/12/02 08:51:53;;;;;;;;;;;1.70;99.90;;;;;;4948540;28;20688;-75
2022/12/02 08:54:18;;;;;;;;;;;1.70;99.90;;;;;;4939381;28;20449;-74
2022/12/02 08:56:50;;;;;;;;;;;1.80;99.90;;;;;;4941727;28;19937;-75
2022/12/02 08:59:15;;;;;;;;;;;1.90;99.90;;;;;;4936746;28;19926;-74
2022/12/02 09:01:41;;;;;;;;;;;2.00;99.90;;;;;;4955354;28;19972;-74
2022/12/02 09:04:07;;;;;;;;;;;2.00;99.90;;;;;;4962555;28;19930;-74
2022/12/02 09:06:32;;;;;;;;;;;2.10;99.90;;;;;;4959074;28;19954;-74
2022/12/02 09:08:59;;;;;;;;;;;2.20;99.90;;;;;;4944782;28;19922;-73
2022/12/02 09:11:25;;;;;;;;;;;2.30;99.90;;;;;;4949529;28;19926;-74
2022/12/02 09:13:51;;;;;;;;;;;2.40;99.90;;;;;;4939627;28;19922;-73
2022/12/02 09:16:17;;;;;;;;;;;2.50;99.90;;;;;;4933673;28;19930;-73
2022/12/02 09:18:42;;;;;;;;;;;2.60;99.90;;;;;;4959325;28;19930;-73
2022/12/02 09:21:08;;;;;;;;;;;2.70;99.90;;;;;;4934395;28;19944;-73
2022/12/02 09:23:33;;;;;;;;;;;2.70;99.90;;;;;;4944504;28;19926;-72
2022/12/02 09:25:59;;;;;;;;;;;2.70;99.90;;;;;;4942311;28;19937;-72
2022/12/02 09:28:25;;;;;;;;;;;2.70;99.90;;;;;;4925428;28;20422;-72
2022/12/02 09:30:50;;;;;;;;;;;2.70;99.90;;;;;;4956969;28;20212;-73
2022/12/02 09:33:16;;;;;;;;;;;2.70;99.90;;;;;;4940197;28;20241;-73
2022/12/02 09:35:41;;;;;;;;;;;2.70;99.90;;;;;;4957906;28;19934;-73
2022/12/02 09:38:07;;;;;;;;;;;2.70;99.90;;;;;;4956524;28;20283;-73
2022/12/02 09:40:33;;;;;;;;;;;2.70;99.90;;;;;;4941733;28;19922;-72
2022/12/02 09:42:59;;;;;;;;;;;2.80;99.90;;;;;;4954664;28;19941;-72
2022/12/02 09:45:25;;;;;;;;;;;2.80;99.90;;;;;;4940457;28;19978;-72
2022/12/02 09:47:51;;;;;;;;;;;2.90;99.90;;;;;;4959189;28;20394;-73
2022/12/02 09:50:17;;;;;;;;;;;3.00;99.90;;;;;;4959102;28;19921;-72
2022/12/02 09:52:42;;;;;;;;;;;3.10;99.90;;;;;;4955368;28;19933;-72
2022/12/02 09:55:19;;;;;;;;;;;3.00;99.90;;;;;;4957546;28;20275;-72
2022/12/02 09:57:45;;;;;;;;;;;3.00;99.90;;;;;;4956625;28;19923;-72
2022/12/02 10:00:20;;;;;;;;;;;2.90;99.90;;;;;;4965949;28;19925;-72
2022/12/02 10:02:46;;;;;;;;;;;2.90;99.90;;;;;;4950949;28;19937;-72
2022/12/02 10:05:14;;;;;;;;;;;2.90;99.90;;;;;;4952604;28;19926;-72
2022/12/02 10:07:40;;;;;;;;;;;2.90;99.90;;;;;;4952707;28;19933;-72
2022/12/02 10:10:09;;;;;;;;;;;2.90;99.90;;;;;;4946949;28;20394;-72
2022/12/02 10:12:34;;;;;;;;;;;2.90;99.90;;;;;;4951691;28;19926;-72
2022/12/02 10:15:00;;;;;;;;;;;2.90;99.90;;;;;;4955283;28;19973;-72
2022/12/02 10:17:26;;;;;;;;;;;2.90;99.90;;;;;;4963880;28;20015;-72
2022/12/02 10:19:51;;;;;;;;;;;2.90;99.90;;;;;;4924223;29;19922;-72
2022/12/02 10:22:18;;;;;;;;;;;2.90;99.90;;;;;;4957327;28;20390;-72
2022/12/02 10:24:44;;;;;;;;;;;2.70;99.90;;;;;;4953232;28;19936;-72
2022/12/02 10:27:23;;;;;;;;;;;2.70;99.90;;;;;;4952283;28;19926;-72
2022/12/02 10:29:49;;;;;;;;;;;2.60;99.90;;;;;;4957372;28;19930;-72
2022/12/02 10:32:22;;;;;;;;;;;2.60;99.90;;;;;;4950184;28;19929;-72
2022/12/02 10:35:02;;;;;;;;;;;2.60;99.90;;;;;;4955260;28;19926;-72
2022/12/02 10:37:30;;;;;;;;;;;2.60;99.90;;;;;;4965622;28;19922;-72
2022/12/02 10:40:16;;;;;;;;;;;2.70;99.90;;;;;;4962030;28;20028;-72
2022/12/02 10:42:42;;;;;;;;;;;2.70;99.90;;;;;;4946350;28;19930;-72
2022/12/02 10:45:28;;;;;;;;;;;2.80;99.90;;;;;;4961908;28;19945;-72
2022/12/02 10:48:09;;;;;;;;;;;2.80;99.90;;;;;;4959424;28;20036;-72
2022/12/02 10:50:35;;;;;;;;;;;2.80;99.90;;;;;;4960830;28;20025;-72
2022/12/02 10:53:01;;;;;;;;;;;2.70;99.90;;;;;;4963808;28;20017;-72
2022/12/02 10:55:27;;;;;;;;;;;2.60;99.90;;;;;;4952640;28;20040;-72
2022/12/02 10:57:54;;;;;;;;;;;2.60;99.90;;;;;;4955482;28;19922;-72
2022/12/02 11:00:24;;;;;;;;;;;2.60;99.90;;;;;;4962092;28;20017;-72
2022/12/02 11:02:51;;;;;;;;;;;2.60;99.90;;;;;;4937062;28;19935;-72
2022/12/02 11:05:24;;;;;;;;;;;2.70;99.90;;;;;;4957643;28;19922;-72
2022/12/02 11:07:51;;;;;;;;;;;2.70;99.90;;;;;;4961808;28;19930;-72
2022/12/02 11:10:19;;;;;;;;;;;2.60;99.90;;;;;;4962679;28;19969;-72
2022/12/02 11:12:47;;;;;;;;;;;2.50;99.90;;;;;;4946466;28;19922;-72
2022/12/02 11:15:32;;;;;;;;;;;2.40;99.90;;;;;;4945280;28;19923;-72
2022/12/02 11:17:57;;;;;;;;;;;2.30;99.90;;;;;;4943433;28;19926;-72
2022/12/02 11:20:31;;;;;;;;;;;2.30;99.90;;;;;;4940151;28;19927;-72
2022/12/02 11:22:57;;;;;;;;;;;2.30;99.90;;;;;;4972830;28;19969;-72
2022/12/02 11:25:41;;;;;;;;;;;2.30;99.90;;;;;;4961806;28;19985;-72
2022/12/02 11:28:25;;;;;;;;;;;2.30;99.90;;;;;;4956102;28;19926;-72
2022/12/02 11:31:11;;;;;;;;;;;2.30;99.90;;;;;;4959388;28;19933;-72
2022/12/02 11:33:42;;;;;;;;;;;2.30;99.90;;;;;;4954073;28;20444;-72
2022/12/02 11:36:08;;;;;;;;;;;2.20;99.90;;;;;;4949605;28;19929;-72
2022/12/02 11:38:49;;;;;;;;;;;2.20;99.90;;;;;;4949032;28;19923;-72
2022/12/02 11:41:15;;;;;;;;;;;2.20;99.90;;;;;;4953103;28;19922;-72
2022/12/02 11:43:41;;;;;;;;;;;2.20;99.90;;;;;;4956855;28;20090;-72
2022/12/02 11:46:06;;;;;;;;;;;2.20;99.90;;;;;;4961064;28;19929;-72
2022/12/02 11:48:32;;;;;;;;;;;2.30;99.90;;;;;;4948284;28;19926;-72
2022/12/02 11:50:58;;;;;;;;;;;2.20;99.90;;;;;;4958503;28;19934;-72
2022/12/02 11:53:23;;;;;;;;;;;2.30;99.90;;;;;;4939941;28;20021;-72
2022/12/02 11:55:50;;;;;;;;;;;2.30;99.90;;;;;;4951119;28;19933;-72
2022/12/02 11:58:22;;;;;;;;;;;2.30;99.90;;;;;;4954910;28;20017;-72
2022/12/02 12:01:01;;;;;;;;;;;2.30;99.90;;;;;;4952795;28;19934;-72
2022/12/02 12:03:27;;;;;;;;;;;2.40;99.90;;;;;;4958423;28;19930;-72
2022/12/02 12:06:09;;;;;;;;;;;2.40;99.90;;;;;;4954465;28;19989;-72
2022/12/02 12:08:36;;;;;;;;;;;2.50;99.90;;;;;;4961715;28;20025;-72
2022/12/02 12:11:21;;;;;;;;;;;2.50;99.90;;;;;;4967894;28;19926;-72
2022/12/02 12:13:57;;;;;;;;;;;2.50;99.90;;;;;;4941597;28;19929;-72
2022/12/02 12:16:25;;;;;;;;;;;2.60;99.90;;;;;;4958621;28;19926;-72
2022/12/02 12:18:51;;;;;;;;;;;2.60;99.90;;;;;;4956260;28;19949;-72
2022/12/02 12:21:29;;;;;;;;;;;2.60;99.90;;;;;;4930987;28;20379;-72
2022/12/02 12:24:15;;;;;;;;;;;2.70;99.90;;;;;;4962717;28;19996;-72
2022/12/02 12:26:40;;;;;;;;;;;2.70;99.90;;;;;;4978078;28;20601;-72
2022/12/02 12:29:06;;;;;;;;;;;2.60;99.90;;;;;;4961430;28;20017;-72
2022/12/02 12:31:31;;;;;;;;;;;2.60;99.90;;;;;;4939429;28;20231;-72
2022/12/02 12:33:57;;;;;;;;;;;2.60;99.90;;;;;;4960148;28;19926;-72
2022/12/02 12:36:22;;;;;;;;;;;2.60;99.90;;;;;;4962258;28;19933;-72
2022/12/02 12:38:48;;;;;;;;;;;2.60;99.90;;;;;;4938768;28;20367;-72
2022/12/02 12:41:14;;;;;;;;;;;2.60;99.90;;;;;;4978732;28;19926;-72
2022/12/02 12:43:40;;;;;;;;;;;2.50;99.90;;;;;;4932853;28;20419;-72
2022/12/02 12:46:06;;;;;;;;;;;2.50;99.90;;;;;;4946045;28;19960;-72
2022/12/02 12:48:31;;;;;;;;;;;2.50;99.90;;;;;;4962413;28;19922;-72
2022/12/02 12:50:57;;;;;;;;;;;2.60;99.90;;;;;;4962537;28;19926;-72
2022/12/02 12:53:22;;;;;;;;;;;2.50;99.90;;;;;;4962675;28;20032;-72
2022/12/02 12:55:48;;;;;;;;;;;2.50;99.90;;;;;;4950945;28;19929;-72
2022/12/02 12:58:14;;;;;;;;;;;2.50;99.90;;;;;;4966685;28;19926;-72
2022/12/02 13:00:40;;;;;;;;;;;2.50;99.90;;;;;;4953195;28;19933;-72
2022/12/02 13:03:05;;;;;;;;;;;2.50;99.90;;;;;;4954635;28;19922;-72
2022/12/02 13:05:31;;;;;;;;;;;2.50;99.90;;;;;;4952262;28;19923;-72
2022/12/02 13:07:56;;;;;;;;;;;2.50;99.90;;;;;;4955829;28;19926;-72
2022/12/02 13:10:22;;;;;;;;;;;2.50;99.90;;;;;;4938742;28;19926;-72
2022/12/02 13:12:48;;;;;;;;;;;2.50;99.90;;;;;;4953702;28;19970;-72
2022/12/02 13:15:13;;;;;;;;;;;2.50;99.90;;;;;;4941866;28;19981;-73
2022/12/02 13:17:39;;;;;;;;;;;2.50;99.90;;;;;;4960670;28;19930;-73
2022/12/02 13:20:05;;;;;;;;;;;2.50;99.90;;;;;;4948503;28;19933;-73
2022/12/02 13:22:31;;;;;;;;;;;2.40;99.90;;;;;;4952777;28;19966;-74
2022/12/02 13:24:56;;;;;;;;;;;2.40;99.90;;;;;;4922441;28;19993;-74
2022/12/02 13:27:22;;;;;;;;;;;2.50;99.90;;;;;;4953888;28;19929;-73
2022/12/02 13:29:48;;;;;;;;;;;2.40;99.90;;;;;;4939106;28;19946;-73
2022/12/02 13:32:14;;;;;;;;;;;2.40;99.90;;;;;;4958927;28;19923;-74
2022/12/02 13:34:41;;;;;;;;;;;2.40;99.90;;;;;;4957101;28;20743;-73
2022/12/02 13:37:07;;;;;;;;;;;2.40;99.90;;;;;;4954264;28;20359;-75
2022/12/02 13:39:39;;;;;;;;;;;2.40;99.90;;;;;;4956917;28;19923;-74
2022/12/02 13:42:06;;;;;;;;;;;2.30;99.90;;;;;;4963964;28;20021;-74
2022/12/02 13:44:32;;;;;;;;;;;2.30;99.90;;;;;;4944164;28;20365;-73
2022/12/02 13:46:57;;;;;;;;;;;2.20;99.90;;;;;;4958417;28;19923;-72
2022/12/02 13:49:23;;;;;;;;;;;2.20;99.90;;;;;;4954714;28;20462;-72
2022/12/02 13:51:48;;;;;;;;;;;2.20;99.90;;;;;;4952884;28;20583;-72
2022/12/02 13:54:14;;;;;;;;;;;2.20;99.90;;;;;;4962271;28;19934;-72
2022/12/02 13:56:40;;;;;;;;;;;2.20;99.90;;;;;;4963613;28;19926;-72
2022/12/02 13:59:05;;;;;;;;;;;2.30;99.90;;;;;;4955485;28;19926;-72
2022/12/02 14:01:31;;;;;;;;;;;2.30;99.90;;;;;;4964144;28;19930;-72
2022/12/02 14:03:56;;;;;;;;;;;2.30;99.90;;;;;;4956228;28;20390;-72
2022/12/02 14:06:22;;;;;;;;;;;2.30;99.90;;;;;;4948643;28;19923;-72
2022/12/02 14:08:47;;;;;;;;;;;2.30;99.90;;;;;;4960187;28;20374;-72
2022/12/02 14:11:13;;;;;;;;;;;2.30;99.90;;;;;;4925334;28;19922;-72
2022/12/02 14:13:38;;;;;;;;;;;2.20;99.90;;;;;;4929467;28;19922;-72
2022/12/02 14:16:04;;;;;;;;;;;2.20;99.90;;;;;;4946360;28;19948;-72
2022/12/02 14:18:30;;;;;;;;;;;2.30;99.90;;;;;;4946597;28;19932;-72
2022/12/02 14:20:55;;;;;;;;;;;2.20;99.90;;;;;;4934486;28;19922;-72
2022/12/02 14:23:21;;;;;;;;;;;2.20;99.90;;;;;;4955282;28;19935;-72
2022/12/02 14:25:46;;;;;;;;;;;2.20;99.90;;;;;;4946406;28;19923;-72
2022/12/02 14:28:12;;;;;;;;;;;2.10;99.90;;;;;;4958122;28;20018;-72
2022/12/02 14:30:38;;;;;;;;;;;2.10;99.90;;;;;;4936108;28;19926;-72
2022/12/02 14:33:03;;;;;;;;;;;2.00;99.90;;;;;;4947508;28;19973;-72
2022/12/02 14:35:29;;;;;;;;;;;2.10;99.90;;;;;;4952924;28;19926;-72
2022/12/02 14:37:54;;;;;;;;;;;2.00;99.90;;;;;;4954441;28;19926;-72